Time;durP1;ratioP1;P1;durP2;ratioP2;P2;SDS_P1;SDS_P2;PMS_P1;PMS_P2;Temp;Humidity;BMP_temperature;BMP_pressure;BME280_temperature;BME280_humidity;BME280_pressure;Samples;Min_cycle;Max_cycle;Signal;HPM_P1;HPM_P2
2021/01/04 00:02:35;;;;;;;21.40;14.23;;;4.90;99.90;;;;;;5046392;28;19951;-74
2021/01/04 00:05:24;;;;;;;18.98;13.85;;;4.90;99.90;;;;;;5049661;28;20033;-74
2021/01/04 00:08:01;;;;;;;22.90;14.85;;;4.90;99.90;;;;;;5049523;28;20041;-75
2021/01/04 00:10:44;;;;;;;24.27;14.57;;;4.90;99.90;;;;;;5045834;28;20454;-74
2021/01/04 00:13:46;;;;;;;20.67;14.13;;;4.80;99.90;;;;;;5045946;28;20021;-75
2021/01/04 00:16:36;;;;;;;19.92;13.60;;;4.80;99.90;;;;;;5048004;28;20450;-75
2021/01/04 00:19:23;;;;;;;19.33;13.55;;;4.80;99.90;;;;;;5033355;28;20030;-74
2021/01/04 00:22:16;;;;;;;21.38;14.18;;;4.80;99.90;;;;;;5043505;28;20377;-74
2021/01/04 00:24:49;;;;;;;20.15;13.63;;;4.80;99.90;;;;;;5051787;28;20032;-75
2021/01/04 00:27:20;;;;;;;;;;;4.90;99.90;;;;;;5052080;28;20071;-75
2021/01/04 00:29:49;;;;;;;17.73;13.20;;;4.90;99.90;;;;;;5048936;28;19948;-76
2021/01/04 00:32:21;;;;;;;22.83;13.15;;;4.90;99.90;;;;;;5051260;28;20025;-76
2021/01/04 00:34:53;;;;;;;19.70;13.50;;;4.90;99.90;;;;;;5048437;28;20092;-75
2021/01/04 00:37:48;;;;;;;19.57;13.23;;;4.80;99.90;;;;;;5047952;28;20028;-75
2021/01/04 00:40:27;;;;;;;21.35;14.98;;;4.80;99.90;;;;;;5047704;28;20033;-75
2021/01/04 00:42:53;;;;;;;19.23;14.15;;;4.80;99.90;;;;;;5041921;28;20033;-75
2021/01/04 00:45:36;;;;;;;17.27;12.60;;;4.80;99.90;;;;;;5049075;28;20411;-75
2021/01/04 00:48:28;;;;;;;19.00;13.27;;;4.80;99.90;;;;;;5044262;28;20059;-75
2021/01/04 00:51:09;;;;;;;20.02;13.27;;;4.80;99.90;;;;;;5046963;28;20031;-75
2021/01/04 00:53:40;;;;;;;18.02;13.18;;;4.80;99.90;;;;;;5063398;28;20039;-75
2021/01/04 00:56:20;;;;;;;20.23;14.35;;;4.70;99.90;;;;;;5042939;28;20025;-75
2021/01/04 00:59:24;;;;;;;19.38;14.25;;;4.70;99.90;;;;;;5060903;28;20562;-75
2021/01/04 01:02:14;;;;;;;18.15;13.40;;;4.70;99.90;;;;;;5043867;28;20485;-75
2021/01/04 01:04:56;;;;;;;18.15;13.20;;;4.70;99.90;;;;;;5046109;28;20035;-74
2021/01/04 01:07:31;;;;;;;18.92;13.38;;;4.60;99.90;;;;;;5048301;28;20009;-75
2021/01/04 01:09:58;;;;;;;19.58;13.27;;;4.70;99.90;;;;;;5038824;28;20097;-75
2021/01/04 01:12:42;;;;;;;20.52;13.40;;;4.70;99.90;;;;;;5045269;28;20021;-75
2021/01/04 01:15:30;;;;;;;18.25;13.43;;;4.80;99.90;;;;;;5049065;28;20031;-75
2021/01/04 01:18:15;;;;;;;18.83;12.98;;;4.80;99.90;;;;;;5046485;28;20155;-75
2021/01/04 01:20:48;;;;;;;21.38;14.55;;;4.60;99.90;;;;;;5049965;28;20109;-75
2021/01/04 01:23:14;;;;;;;18.17;13.52;;;4.60;99.90;;;;;;5049793;28;20079;-75
2021/01/04 01:25:46;;;;;;;18.40;14.48;;;4.70;99.90;;;;;;5049217;28;20029;-75
2021/01/04 01:28:39;;;;;;;21.83;14.60;;;4.70;99.90;;;;;;5048406;28;20069;-75
2021/01/04 01:31:30;;;;;;;19.75;14.60;;;4.60;99.90;;;;;;5041870;28;20913;-75
2021/01/04 01:34:17;;;;;;;19.13;13.73;;;4.60;99.90;;;;;;5062464;28;20032;-75
2021/01/04 01:37:05;;;;;;;19.70;13.05;;;4.70;99.90;;;;;;5047173;28;20109;-75
2021/01/04 01:39:58;;;;;;;21.27;14.57;;;4.50;99.90;;;;;;5050479;28;20021;-75
2021/01/04 01:42:27;;;;;;;;;;;4.50;99.90;;;;;;5050405;28;20474;-75
2021/01/04 01:45:21;;;;;;;21.02;14.38;;;4.50;99.90;;;;;;5058025;28;20383;-74
2021/01/04 01:47:52;;;;;;;21.92;14.85;;;4.50;99.90;;;;;;5050810;28;20033;-74
2021/01/04 01:50:26;;;;;;;21.08;15.23;;;4.60;99.90;;;;;;5049949;28;20563;-74
2021/01/04 01:53:34;;;;;;;20.63;14.23;;;4.60;99.90;;;;;;5045342;28;20605;-74
2021/01/04 01:55:59;;;;;;;22.38;14.70;;;4.60;99.90;;;;;;5044483;28;20036;-75
2021/01/04 01:58:51;;;;;;;21.00;14.90;;;4.50;99.90;;;;;;5062283;28;20485;-75
2021/01/04 02:01:36;;;;;;;25.00;15.30;;;4.50;99.90;;;;;;5050278;28;20125;-75
2021/01/04 02:04:46;;;;;;;21.60;15.45;;;4.50;99.90;;;;;;5051103;28;20072;-75
2021/01/04 02:07:49;;;;;;;22.83;15.85;;;4.60;99.90;;;;;;5052640;28;20075;-75
2021/01/04 02:10:20;;;;;;;22.95;14.30;;;4.50;99.90;;;;;;5055114;28;20037;-75
2021/01/04 02:12:49;;;;;;;23.00;16.08;;;4.60;99.90;;;;;;5047737;28;20037;-75
2021/01/04 02:15:20;;;;;;;22.85;15.73;;;4.60;99.90;;;;;;5046620;28;20105;-75
2021/01/04 02:17:53;;;;;;;25.85;16.35;;;4.60;99.90;;;;;;5054977;28;20061;-75
2021/01/04 02:20:54;;;;;;;26.20;17.30;;;4.50;99.90;;;;;;5053834;28;20025;-75
2021/01/04 02:23:28;;;;;;;26.60;17.42;;;4.40;99.90;;;;;;5070396;28;20118;-75
2021/01/04 02:25:57;;;;;;;23.75;15.73;;;4.50;99.90;;;;;;5047972;28;20046;-75
2021/01/04 02:28:27;;;;;;;25.80;16.25;;;4.40;99.90;;;;;;5041031;28;20470;-75
2021/01/04 02:30:53;;;;;;;22.95;15.80;;;4.40;99.90;;;;;;5063636;28;20044;-75
2021/01/04 02:33:20;;;;;;;24.90;15.95;;;4.50;99.90;;;;;;5052406;28;20377;-75
2021/01/04 02:35:48;;;;;;;22.70;16.48;;;4.50;99.90;;;;;;5052585;28;20044;-75
2021/01/04 02:38:18;;;;;;;24.33;16.42;;;4.40;99.90;;;;;;5049910;28;20424;-75
2021/01/04 02:40:44;;;;;;;22.75;15.65;;;4.40;99.90;;;;;;5050157;28;20033;-75
2021/01/04 02:43:10;;;;;;;23.13;15.10;;;4.40;99.90;;;;;;5049551;28;20032;-75
2021/01/04 02:45:36;;;;;;;24.45;16.63;;;4.50;99.90;;;;;;5034630;28;20528;-75
2021/01/04 02:48:24;;;;;;;21.08;14.30;;;4.40;99.90;;;;;;5054053;28;20033;-75
2021/01/04 02:51:08;;;;;;;22.55;15.27;;;4.40;99.90;;;;;;5060001;28;20021;-80
2021/01/04 02:53:52;;;;;;;21.10;14.82;;;4.40;99.90;;;;;;5054013;28;20048;-80
2021/01/04 02:56:30;;;;;;;22.35;15.15;;;4.30;99.90;;;;;;5057154;28;20389;-80
2021/01/04 02:59:01;;;;;;;24.02;15.75;;;4.40;99.90;;;;;;5053363;28;20044;-79
2021/01/04 03:01:32;;;;;;;25.13;15.57;;;4.40;99.90;;;;;;5052805;28;20028;-80
2021/01/04 03:03:59;;;;;;;24.25;15.55;;;4.40;99.90;;;;;;5044023;28;20048;-80
2021/01/04 03:07:00;;;;;;;21.88;15.07;;;4.40;99.90;;;;;;5059643;28;20470;-80
2021/01/04 03:09:28;;;;;;;22.38;15.63;;;4.40;99.90;;;;;;5040632;28;20394;-80
2021/01/04 03:12:00;;;;;;;23.45;15.63;;;4.40;99.90;;;;;;5048854;28;20075;-80
2021/01/04 03:14:51;;;;;;;24.83;16.55;;;4.50;99.90;;;;;;5048534;28;20311;-80
2021/01/04 03:17:27;;;;;;;22.23;14.43;;;4.40;99.90;;;;;;5050387;28;20405;-80
2021/01/04 03:19:58;;;;;;;23.77;16.02;;;4.40;99.90;;;;;;5046729;28;20039;-80
2021/01/04 03:22:30;;;;;;;24.10;15.57;;;4.40;99.90;;;;;;5044946;28;20032;-80
2021/01/04 03:24:55;;;;;;;23.27;16.00;;;4.40;99.90;;;;;;5052561;28;20025;-80
2021/01/04 03:27:32;;;;;;;23.20;15.55;;;4.40;99.90;;;;;;5046199;28;21134;-80
2021/01/04 03:29:58;;;;;;;25.27;16.30;;;4.30;99.90;;;;;;5034091;28;20029;-80
2021/01/04 03:32:25;;;;;;;22.58;15.88;;;4.20;99.90;;;;;;5039687;28;20022;-80
2021/01/04 03:34:54;;;;;;;25.40;16.35;;;4.20;99.90;;;;;;5053789;28;20035;-80
2021/01/04 03:37:19;;;;;;;22.63;15.45;;;4.20;99.90;;;;;;5052592;28;20013;-80
2021/01/04 03:39:45;;;;;;;20.70;15.15;;;4.20;99.90;;;;;;5038941;28;20036;-80
2021/01/04 03:42:13;;;;;;;22.73;15.52;;;4.20;99.90;;;;;;5053622;28;20028;-80
2021/01/04 03:44:42;;;;;;;20.90;14.70;;;4.30;99.90;;;;;;5053085;28;20025;-80
2021/01/04 03:47:10;;;;;;;22.45;14.93;;;4.20;99.90;;;;;;5049892;28;20092;-80
2021/01/04 03:49:36;;;;;;;23.17;15.68;;;4.20;99.90;;;;;;5050181;28;20040;-80
2021/01/04 03:52:03;;;;;;;23.77;16.00;;;4.30;99.90;;;;;;5051633;28;20021;-80
2021/01/04 03:54:30;;;;;;;21.45;14.52;;;4.30;99.90;;;;;;5049735;28;20469;-80
2021/01/04 03:56:58;;;;;;;21.25;14.73;;;4.30;99.90;;;;;;5053628;28;20037;-80
2021/01/04 03:59:27;;;;;;;22.48;15.65;;;4.30;99.90;;;;;;5049638;28;20109;-80
2021/01/04 04:02:12;;;;;;;22.73;15.35;;;4.40;99.90;;;;;;5042952;28;20428;-80
2021/01/04 04:04:40;;;;;;;22.38;15.25;;;4.40;99.90;;;;;;5048206;28;20021;-80
2021/01/04 04:07:16;;;;;;;24.10;15.00;;;4.30;99.90;;;;;;5046303;28;20025;-79
2021/01/04 04:09:46;;;;;;;23.10;15.52;;;4.40;99.90;;;;;;5045902;28;20032;-79
2021/01/04 04:12:13;;;;;;;22.73;15.73;;;4.30;99.90;;;;;;5045388;28;20037;-80
2021/01/04 04:14:47;;;;;;;21.80;14.63;;;4.30;99.90;;;;;;5075591;28;20025;-80
2021/01/04 04:17:19;;;;;;;21.52;15.27;;;4.30;99.90;;;;;;5053320;28;20100;-79
2021/01/04 04:19:49;;;;;;;21.00;13.73;;;4.30;99.90;;;;;;5050281;28;20496;-80
2021/01/04 04:22:18;;;;;;;19.48;13.80;;;4.40;99.90;;;;;;5049032;28;20533;-80
2021/01/04 04:24:46;;;;;;;19.05;13.38;;;4.20;99.90;;;;;;5046887;28;20025;-80
2021/01/04 04:27:16;;;;;;;21.13;13.77;;;4.10;99.90;;;;;;5053146;28;20481;-80
2021/01/04 04:29:44;;;;;;;21.00;14.35;;;4.10;99.90;;;;;;5049366;28;20021;-80
2021/01/04 04:32:10;;;;;;;20.65;14.50;;;4.20;99.90;;;;;;5051381;28;20078;-80
2021/01/04 04:34:38;;;;;;;23.00;14.68;;;4.30;99.90;;;;;;5039617;28;20052;-80
2021/01/04 04:37:07;;;;;;;18.73;13.13;;;4.30;99.90;;;;;;5052024;28;20025;-80
2021/01/04 04:39:36;;;;;;;24.27;14.35;;;4.30;99.90;;;;;;5037547;28;20385;-80
2021/01/04 04:42:09;;;;;;;20.25;13.18;;;4.40;99.90;;;;;;5052954;28;20082;-80
2021/01/04 04:44:53;;;;;;;18.58;13.32;;;4.40;99.90;;;;;;5050653;28;20166;-74
2021/01/04 04:47:51;;;;;;;18.75;13.43;;;4.40;99.90;;;;;;5052500;28;20461;-74
2021/01/04 04:50:23;;;;;;;20.50;14.95;;;4.40;99.90;;;;;;5042604;28;20028;-74
2021/01/04 04:52:58;;;;;;;19.63;13.27;;;4.50;99.90;;;;;;5051006;28;20033;-74
2021/01/04 04:56:11;;;;;;;19.40;13.68;;;4.40;99.90;;;;;;5053918;28;20283;-74
2021/01/04 04:58:52;;;;;;;21.70;14.57;;;4.30;99.90;;;;;;5048339;28;20021;-74
2021/01/04 05:02:04;;;;;;;18.80;13.05;;;4.20;99.90;;;;;;5057277;28;20056;-75
2021/01/04 05:04:57;;;;;;;22.95;14.70;;;4.10;99.90;;;;;;5046665;28;20381;-74
2021/01/04 05:07:45;;;;;;;20.85;14.57;;;4.00;99.90;;;;;;5065738;28;20021;-74
2021/01/04 05:10:17;;;;;;;20.52;13.52;;;4.00;99.90;;;;;;5052169;28;20389;-74
2021/01/04 05:13:23;;;;;;;22.65;15.73;;;3.90;99.90;;;;;;5051406;28;20032;-74
2021/01/04 05:16:14;;;;;;;22.05;14.55;;;4.00;99.90;;;;;;5044765;28;20036;-74
2021/01/04 05:19:22;;;;;;;20.45;13.63;;;4.10;99.90;;;;;;5067221;28;20036;-74
2021/01/04 05:22:19;;;;;;;19.45;13.35;;;4.10;99.90;;;;;;5031559;28;20547;-75
2021/01/04 05:25:03;;;;;;;22.70;14.38;;;4.10;99.90;;;;;;5055397;28;20064;-75
2021/01/04 05:27:40;;;;;;;20.45;13.98;;;4.10;99.90;;;;;;5051284;28;20108;-75
2021/01/04 05:30:28;;;;;;;21.80;14.80;;;4.10;99.90;;;;;;5047477;28;20033;-75
2021/01/04 05:33:18;;;;;;;19.98;13.77;;;4.20;99.90;;;;;;5058244;28;20367;-75
2021/01/04 05:35:46;;;;;;;20.63;14.25;;;4.20;99.90;;;;;;5047969;28;20105;-75
2021/01/04 05:38:43;;;;;;;20.20;13.95;;;4.20;99.90;;;;;;5055135;28;20031;-75
2021/01/04 05:41:49;;;;;;;19.88;13.15;;;4.10;99.90;;;;;;5046421;28;20025;-75
2021/01/04 05:44:24;;;;;;;19.00;13.40;;;4.10;99.90;;;;;;5039844;28;20037;-74
2021/01/04 05:46:58;;;;;;;18.48;13.45;;;4.00;99.90;;;;;;5048306;28;20029;-75
2021/01/04 05:49:45;;;;;;;19.35;13.60;;;4.10;99.90;;;;;;5059810;28;20064;-74
2021/01/04 05:52:16;;;;;;;18.98;13.60;;;4.10;99.90;;;;;;5053514;28;20032;-74
2021/01/04 05:54:42;;;;;;;20.02;13.18;;;4.10;99.90;;;;;;5052199;28;20029;-75
2021/01/04 05:57:11;;;;;;;18.73;13.52;;;4.00;99.90;;;;;;5051087;28;20036;-75
2021/01/04 05:59:54;;;;;;;22.25;14.77;;;4.00;99.90;;;;;;5049530;28;20028;-75
2021/01/04 06:02:29;;;;;;;21.50;15.13;;;4.10;99.90;;;;;;5050399;28;20021;-74
2021/01/04 06:05:11;;;;;;;17.77;13.05;;;4.10;99.90;;;;;;5051071;28;20033;-75
2021/01/04 06:07:38;;;;;;;17.75;13.05;;;3.90;99.90;;;;;;5052730;28;20389;-74
2021/01/04 06:10:06;;;;;;;18.92;13.00;;;3.90;99.90;;;;;;5054967;28;20033;-75
2021/01/04 06:12:45;;;;;;;19.85;13.68;;;3.90;99.90;;;;;;5048548;28;20037;-74
2021/01/04 06:15:11;;;;;;;19.35;14.32;;;4.00;99.90;;;;;;5050562;28;20055;-75
2021/01/04 06:17:42;;;;;;;20.63;14.63;;;4.00;99.90;;;;;;5046173;28;20335;-74
2021/01/04 06:20:15;;;;;;;18.02;13.32;;;4.00;99.90;;;;;;5050210;28;20048;-74
2021/01/04 06:22:41;;;;;;;20.08;14.25;;;4.10;99.90;;;;;;5047310;28;20104;-75
2021/01/04 06:25:08;;;;;;;19.98;14.13;;;4.10;99.90;;;;;;5054979;28;20025;-75
2021/01/04 06:27:42;;;;;;;19.40;14.13;;;4.10;99.90;;;;;;5053723;28;20040;-74
2021/01/04 06:30:31;;;;;;;18.40;13.32;;;4.00;99.90;;;;;;5040956;28;20021;-74
2021/01/04 06:33:03;;;;;;;21.27;14.18;;;4.10;99.90;;;;;;5052967;28;20033;-75
2021/01/04 06:35:32;;;;;;;20.58;13.95;;;4.20;99.90;;;;;;5048196;28;20045;-75
2021/01/04 06:38:24;;;;;;;19.23;13.80;;;4.30;99.90;;;;;;5051700;28;20033;-74
2021/01/04 06:40:50;;;;;;;21.33;14.38;;;4.20;99.90;;;;;;5049115;28;20083;-75
2021/01/04 06:43:33;;;;;;;20.20;13.65;;;4.30;99.90;;;;;;5049615;28;20118;-75
2021/01/04 06:46:35;;;;;;;18.52;13.10;;;4.20;99.90;;;;;;5051764;28;21427;-75
2021/01/04 06:49:04;;;;;;;19.92;14.20;;;4.30;99.90;;;;;;5053007;28;20037;-74
2021/01/04 06:51:52;;;;;;;19.10;14.13;;;4.10;99.90;;;;;;5045302;28;20017;-74
2021/01/04 06:54:35;;;;;;;19.58;13.20;;;4.00;99.90;;;;;;5050639;28;20027;-74
2021/01/04 06:57:43;;;;;;;20.02;14.32;;;3.90;99.90;;;;;;5043668;28;20375;-74
2021/01/04 07:00:36;;;;;;;18.85;13.18;;;4.00;99.90;;;;;;5047153;28;20489;-75
2021/01/04 07:03:04;;;;;;;;;;;4.10;99.90;;;;;;5038527;28;20437;-74
2021/01/04 07:05:35;;;;;;;17.92;12.73;;;4.10;99.90;;;;;;5067501;28;19931;-75
2021/01/04 07:08:46;;;;;;;20.83;14.02;;;4.10;99.90;;;;;;5040443;28;20396;-75
2021/01/04 07:11:33;;;;;;;20.98;13.85;;;4.20;99.90;;;;;;5049767;28;20035;-74
2021/01/04 07:14:24;;;;;;;19.23;13.55;;;4.10;99.90;;;;;;5049926;28;20104;-75
2021/01/04 07:16:58;;;;;;;19.38;13.93;;;4.10;99.90;;;;;;5054069;28;20160;-75
2021/01/04 07:19:34;;;;;;;22.58;15.10;;;4.10;99.90;;;;;;5054537;28;20025;-74
2021/01/04 07:22:18;;;;;;;20.52;14.43;;;4.10;99.90;;;;;;5054209;28;20052;-75
2021/01/04 07:24:59;;;;;;;20.27;14.63;;;4.10;99.90;;;;;;5056700;28;20048;-74
2021/01/04 07:27:31;;;;;;;20.85;14.63;;;4.20;99.90;;;;;;5051924;28;20025;-75
2021/01/04 07:30:18;;;;;;;22.23;15.25;;;4.10;99.90;;;;;;5052251;28;20104;-75
2021/01/04 07:33:00;;;;;;;21.65;15.02;;;4.10;99.90;;;;;;5048892;28;20016;-75
2021/01/04 07:35:34;;;;;;;23.92;15.57;;;4.10;99.90;;;;;;5045857;28;20029;-75
2021/01/04 07:38:09;;;;;;;20.17;13.90;;;4.20;99.90;;;;;;5054439;28;20094;-75
2021/01/04 07:41:00;;;;;;;19.00;13.32;;;4.20;99.90;;;;;;5066782;28;20087;-75
2021/01/04 07:43:47;;;;;;;20.02;13.73;;;4.10;99.90;;;;;;5069197;28;20036;-75
2021/01/04 07:46:34;;;;;;;20.30;14.07;;;4.10;99.90;;;;;;5061074;28;20477;-74
2021/01/04 07:49:21;;;;;;;19.30;13.68;;;4.20;99.90;;;;;;5047683;28;20066;-75
2021/01/04 07:52:26;;;;;;;21.45;14.43;;;4.10;99.90;;;;;;5048219;28;20028;-75
2021/01/04 07:55:15;;;;;;;20.45;13.95;;;4.10;99.90;;;;;;5060524;28;20040;-75
2021/01/04 07:58:23;;;;;;;20.45;13.80;;;4.10;99.90;;;;;;5042116;28;20017;-75
2021/01/04 08:01:19;;;;;;;21.58;14.20;;;4.00;99.90;;;;;;5036599;28;20048;-75
2021/01/04 08:04:00;;;;;;;19.55;13.80;;;4.10;99.90;;;;;;5054912;28;20027;-75
2021/01/04 08:06:51;;;;;;;22.30;14.77;;;4.10;99.90;;;;;;5055987;28;20032;-75
2021/01/04 08:09:43;;;;;;;19.65;13.18;;;4.10;99.90;;;;;;5049549;28;20393;-75
2021/01/04 08:12:40;;;;;;;19.63;13.67;;;4.10;99.90;;;;;;5054358;28;20044;-75
2021/01/04 08:15:27;;;;;;;21.25;15.20;;;4.20;99.90;;;;;;5054776;28;20267;-74
2021/01/04 08:18:19;;;;;;;19.65;13.93;;;4.20;99.90;;;;;;5053166;28;20437;-75
2021/01/04 08:21:25;;;;;;;18.02;12.77;;;4.10;99.90;;;;;;5051960;28;20033;-75
2021/01/04 08:24:05;;;;;;;18.38;12.65;;;4.00;99.90;;;;;;5039732;28;20103;-75
2021/01/04 08:27:11;;;;;;;19.45;13.13;;;4.10;99.90;;;;;;5046806;28;20103;-74
2021/01/04 08:30:04;;;;;;;19.77;13.95;;;4.10;99.90;;;;;;5044317;28;20431;-75
2021/01/04 08:32:51;;;;;;;21.52;13.88;;;4.10;99.90;;;;;;5047196;28;20036;-75
2021/01/04 08:35:33;;;;;;;23.40;14.68;;;4.00;99.90;;;;;;5045563;28;20048;-74
2021/01/04 08:38:21;;;;;;;20.10;13.73;;;4.10;99.90;;;;;;5048801;28;20037;-74
2021/01/04 08:41:22;;;;;;;21.35;14.07;;;4.00;99.90;;;;;;5048781;28;20036;-74
2021/01/04 08:43:51;;;;;;;19.17;13.82;;;4.10;99.90;;;;;;5042522;28;20479;-74
2021/01/04 08:46:23;;;;;;;19.23;13.45;;;4.10;99.90;;;;;;5046260;28;20017;-75
2021/01/04 08:48:58;;;;;;;19.30;13.95;;;4.10;99.90;;;;;;5049962;28;20390;-75
2021/01/04 08:51:39;;;;;;;19.77;13.48;;;4.10;99.90;;;;;;5045944;28;20029;-74
2021/01/04 08:54:28;;;;;;;17.55;12.57;;;4.20;99.90;;;;;;5065735;28;20021;-74
2021/01/04 08:57:03;;;;;;;20.23;14.20;;;4.10;99.90;;;;;;5044657;28;20079;-74
2021/01/04 08:59:33;;;;;;;21.38;13.18;;;4.10;99.90;;;;;;5046666;28;20819;-74
2021/01/04 09:02:19;;;;;;;19.13;13.85;;;4.10;99.90;;;;;;5047735;28;20025;-75
2021/01/04 09:04:44;;;;;;;23.38;14.88;;;4.20;99.90;;;;;;5059848;28;20028;-75
2021/01/04 09:07:29;;;;;;;20.45;14.38;;;4.20;99.90;;;;;;5055489;28;20461;-74
2021/01/04 09:10:15;;;;;;;18.38;12.98;;;4.30;99.90;;;;;;5069257;28;20020;-74
2021/01/04 09:12:47;;;;;;;19.23;13.00;;;4.30;99.90;;;;;;5053257;28;20474;-75
2021/01/04 09:15:19;;;;;;;18.02;13.23;;;4.30;99.90;;;;;;5049148;28;20056;-74
2021/01/04 09:17:46;;;;;;;16.58;11.80;;;4.30;99.90;;;;;;5055172;28;20070;-75
2021/01/04 09:20:18;;;;;;;18.35;13.20;;;4.20;99.90;;;;;;5045218;28;20377;-74
2021/01/04 09:22:45;;;;;;;17.48;12.40;;;4.20;99.90;;;;;;5049823;28;20021;-75
2021/01/04 09:25:20;;;;;;;17.63;13.25;;;4.20;99.90;;;;;;5047016;28;20382;-75
2021/01/04 09:27:49;;;;;;;21.73;13.45;;;4.20;99.90;;;;;;5051369;28;21016;-74
2021/01/04 09:30:23;;;;;;;20.25;14.05;;;4.20;99.90;;;;;;5045210;28;20040;-74
2021/01/04 09:33:00;;;;;;;17.02;12.82;;;4.20;99.90;;;;;;5041605;28;20033;-75
2021/01/04 09:35:27;;;;;;;21.00;13.55;;;4.20;99.90;;;;;;5045600;28;20048;-74
2021/01/04 09:38:21;;;;;;;18.13;13.30;;;4.40;99.90;;;;;;5046269;28;20027;-74
2021/01/04 09:40:49;;;;;;;18.45;12.80;;;4.40;99.90;;;;;;5082846;28;20825;-74
2021/01/04 09:43:21;;;;;;;18.05;12.95;;;4.40;99.90;;;;;;5051107;28;20029;-74
2021/01/04 09:45:47;;;;;;;17.15;13.15;;;4.30;99.90;;;;;;5047385;28;20026;-75
2021/01/04 09:48:43;;;;;;;16.77;12.25;;;4.40;99.90;;;;;;5049164;28;20528;-74
2021/01/04 09:51:14;;;;;;;18.15;12.40;;;4.30;99.90;;;;;;5051624;28;20033;-74
2021/01/04 09:53:41;;;;;;;18.48;12.85;;;4.40;99.90;;;;;;5050528;28;20037;-75
2021/01/04 09:56:13;;;;;;;16.92;12.07;;;4.40;99.90;;;;;;5061777;28;20041;-74
2021/01/04 09:58:40;;;;;;;16.55;12.10;;;4.30;99.90;;;;;;5047300;28;20051;-74
2021/01/04 10:01:11;;;;;;;17.70;12.70;;;4.40;99.90;;;;;;5043254;28;20025;-74
2021/01/04 10:03:37;;;;;;;15.70;11.48;;;4.30;99.90;;;;;;5043322;28;20534;-74
2021/01/04 10:06:07;;;;;;;18.92;12.32;;;4.30;99.90;;;;;;5054858;28;20027;-74
2021/01/04 10:08:33;;;;;;;16.63;12.23;;;4.20;99.90;;;;;;5055987;28;20040;-74
2021/01/04 10:11:02;;;;;;;15.63;10.98;;;4.20;99.90;;;;;;5050425;28;20129;-74
2021/01/04 10:13:30;;;;;;;16.83;11.70;;;4.40;99.90;;;;;;5048576;28;20037;-74
2021/01/04 10:15:58;;;;;;;15.95;11.35;;;4.30;99.90;;;;;;5053481;28;20013;-75
2021/01/04 10:18:54;;;;;;;15.20;11.35;;;4.20;99.90;;;;;;5053516;28;20469;-74
2021/01/04 10:21:35;;;;;;;17.25;11.48;;;4.20;99.90;;;;;;5047081;28;20054;-74
2021/01/04 10:24:07;;;;;;;17.17;12.75;;;4.30;99.90;;;;;;5052058;28;20035;-74
2021/01/04 10:26:45;;;;;;;15.23;11.93;;;4.30;99.90;;;;;;5074594;28;20021;-75
2021/01/04 10:29:17;;;;;;;16.90;11.48;;;4.40;99.90;;;;;;5054714;28;20110;-75
2021/01/04 10:31:44;;;;;;;17.30;12.30;;;4.40;99.90;;;;;;5055972;28;20056;-75
2021/01/04 10:34:19;;;;;;;15.65;11.52;;;4.40;99.90;;;;;;5069525;28;20476;-75
2021/01/04 10:37:01;;;;;;;18.20;12.43;;;4.50;99.90;;;;;;5051981;28;20526;-75
2021/01/04 10:39:37;;;;;;;17.75;11.73;;;4.40;99.90;;;;;;5052691;28;20542;-75
2021/01/04 10:42:20;;;;;;;16.35;11.45;;;4.40;99.90;;;;;;5055163;28;20020;-74
2021/01/04 10:44:47;;;;;;;17.08;11.65;;;4.40;99.90;;;;;;5051676;28;20090;-75
2021/01/04 10:47:27;;;;;;;17.73;13.30;;;4.50;99.90;;;;;;5041777;28;20017;-74
2021/01/04 10:50:03;;;;;;;19.95;14.20;;;4.50;99.90;;;;;;5056151;28;20032;-74
2021/01/04 10:52:29;;;;;;;20.10;13.30;;;4.50;99.90;;;;;;5056832;28;20774;-74
2021/01/04 10:54:55;;;;;;;17.38;12.32;;;4.50;99.90;;;;;;5053648;28;20125;-75
2021/01/04 10:57:41;;;;;;;17.42;12.00;;;4.50;99.90;;;;;;5053859;28;20071;-75
2021/01/04 11:00:10;;;;;;;14.60;11.80;;;4.30;99.90;;;;;;5056085;28;20029;-75
2021/01/04 11:02:47;;;;;;;16.00;11.85;;;4.30;99.90;;;;;;5048510;28;20040;-74
2021/01/04 11:05:16;;;;;;;15.27;11.40;;;4.30;99.90;;;;;;5047985;28;20025;-74
2021/01/04 11:07:42;;;;;;;13.73;10.73;;;4.20;99.90;;;;;;5051332;28;20082;-75
2021/01/04 11:10:28;;;;;;;14.10;10.52;;;4.20;99.90;;;;;;5052406;28;20033;-75
2021/01/04 11:12:58;;;;;;;12.38;9.80;;;4.20;99.90;;;;;;5053400;28;20553;-79
2021/01/04 11:15:29;;;;;;;12.38;10.00;;;4.30;99.90;;;;;;5049586;28;20064;-79
2021/01/04 11:17:59;;;;;;;13.38;10.70;;;4.30;99.90;;;;;;5039164;28;20513;-79
2021/01/04 11:20:28;;;;;;;13.40;10.27;;;4.30;99.90;;;;;;5047347;28;20029;-79
2021/01/04 11:23:13;;;;;;;15.10;9.38;;;4.30;99.90;;;;;;5051351;28;20079;-79
2021/01/04 11:25:47;;;;;;;13.98;10.07;;;4.40;99.90;;;;;;5051273;28;20033;-79
2021/01/04 11:28:14;;;;;;;13.50;10.05;;;4.50;99.90;;;;;;5045973;28;20022;-79
2021/01/04 11:30:42;;;;;;;11.90;9.60;;;4.50;99.90;;;;;;5048182;28;20039;-79
2021/01/04 11:33:14;;;;;;;13.38;10.00;;;4.40;99.90;;;;;;5075832;28;20029;-79
2021/01/04 11:35:40;;;;;;;13.15;10.60;;;4.60;99.90;;;;;;5051173;28;20021;-81
2021/01/04 11:38:06;;;;;;;13.43;9.90;;;4.50;99.90;;;;;;5052696;28;20392;-78
2021/01/04 11:40:31;;;;;;;12.63;9.50;;;4.50;99.90;;;;;;5050706;28;20024;-79
2021/01/04 11:42:59;;;;;;;12.95;10.10;;;4.50;99.90;;;;;;5053764;28;20067;-79
2021/01/04 11:45:28;;;;;;;12.95;10.25;;;4.60;99.90;;;;;;5049161;28;20028;-79
2021/01/04 11:47:55;;;;;;;14.43;11.43;;;4.50;99.90;;;;;;5050913;28;20538;-79
2021/01/04 11:50:21;;;;;;;14.88;11.00;;;4.60;99.90;;;;;;5049470;28;20100;-79
2021/01/04 11:52:47;;;;;;;17.80;12.05;;;4.70;99.90;;;;;;5051398;28;20032;-79
2021/01/04 11:55:17;;;;;;;13.77;11.00;;;4.60;99.90;;;;;;5052739;28;20025;-78
2021/01/04 11:57:45;;;;;;;15.15;10.95;;;4.60;99.90;;;;;;5056363;28;20020;-79
2021/01/04 12:00:14;;;;;;;16.38;12.02;;;4.60;99.90;;;;;;5049669;28;20036;-79
2021/01/04 12:02:43;;;;;;;15.10;11.70;;;4.70;99.90;;;;;;5044594;28;20029;-79
2021/01/04 12:05:12;;;;;;;12.90;10.30;;;4.50;99.90;;;;;;5046825;28;20087;-79
2021/01/04 12:07:38;;;;;;;15.60;11.90;;;4.50;99.90;;;;;;5037792;28;20040;-79
2021/01/04 12:10:12;;;;;;;14.75;11.07;;;4.60;99.90;;;;;;5043876;28;20370;-78
2021/01/04 12:12:39;;;;;;;15.18;10.90;;;4.70;99.90;;;;;;5045555;28;20021;-79
2021/01/04 12:15:11;;;;;;;15.35;11.10;;;4.70;99.90;;;;;;5042907;28;20024;-79
2021/01/04 12:17:38;;;;;;;13.85;10.98;;;4.60;99.90;;;;;;5048842;28;20021;-79
2021/01/04 12:20:11;;;;;;;16.65;12.32;;;4.50;99.90;;;;;;5051770;28;20025;-79
2021/01/04 12:22:37;;;;;;;13.68;10.45;;;4.60;99.90;;;;;;5051163;28;20017;-79
2021/01/04 12:25:03;;;;;;;17.50;11.93;;;4.60;99.90;;;;;;5048731;28;20082;-78
2021/01/04 12:27:32;;;;;;;16.65;11.55;;;4.60;99.90;;;;;;5047369;28;20036;-79
2021/01/04 12:29:57;;;;;;;14.57;10.48;;;4.60;99.90;;;;;;5049390;28;20037;-79
2021/01/04 12:32:23;;;;;;;17.05;12.65;;;4.50;99.90;;;;;;5045857;28;20025;-79
2021/01/04 12:34:52;;;;;;;16.20;11.50;;;4.50;99.90;;;;;;5042977;28;20025;-80
2021/01/04 12:37:19;;;;;;;14.45;10.10;;;4.60;99.90;;;;;;5049436;28;20068;-79
2021/01/04 12:39:45;;;;;;;16.40;11.93;;;4.50;99.90;;;;;;5048866;28;20382;-79
2021/01/04 12:42:10;;;;;;;16.25;12.00;;;4.60;99.90;;;;;;5052313;28;20021;-79
2021/01/04 12:44:38;;;;;;;17.83;12.80;;;4.60;99.90;;;;;;5049729;28;20171;-79
2021/01/04 12:47:04;;;;;;;17.15;11.98;;;4.60;99.90;;;;;;5047584;28;20036;-79
2021/01/04 12:49:31;;;;;;;19.33;13.20;;;4.60;99.90;;;;;;5049865;28;20029;-79
2021/01/04 12:51:59;;;;;;;17.10;11.95;;;4.70;99.90;;;;;;5054010;28;20032;-79
2021/01/04 12:54:28;;;;;;;15.88;11.75;;;4.70;99.90;;;;;;5046087;28;20017;-79
2021/01/04 12:56:56;;;;;;;16.58;12.13;;;4.60;99.90;;;;;;5043475;28;20470;-81
2021/01/04 12:59:26;;;;;;;17.80;12.05;;;4.70;99.90;;;;;;5050795;28;20016;-79
2021/01/04 13:01:55;;;;;;;16.73;12.57;;;4.70;99.90;;;;;;5065352;28;20021;-79
2021/01/04 13:04:25;;;;;;;16.77;11.88;;;4.70;99.90;;;;;;5039306;28;20108;-81
2021/01/04 13:06:56;;;;;;;15.20;11.05;;;4.70;99.90;;;;;;5044762;28;20043;-81
2021/01/04 13:09:23;;;;;;;17.08;11.80;;;4.70;99.90;;;;;;5051199;28;20025;-80
2021/01/04 13:11:53;;;;;;;15.90;11.25;;;4.80;99.90;;;;;;5049550;28;20522;-79
2021/01/04 13:14:20;;;;;;;15.55;11.18;;;4.90;99.90;;;;;;5052238;28;20036;-81
2021/01/04 13:16:49;;;;;;;15.35;10.95;;;4.80;99.90;;;;;;5050266;28;20009;-81
2021/01/04 13:19:19;;;;;;;13.98;10.23;;;4.80;99.90;;;;;;5049732;28;20108;-81
2021/01/04 13:21:54;;;;;;;14.38;10.98;;;4.90;99.90;;;;;;5044379;28;20563;-81
2021/01/04 13:24:22;;;;;;;14.20;10.43;;;4.90;99.90;;;;;;5053526;28;20021;-81
2021/01/04 13:26:55;;;;;;;14.48;10.68;;;4.80;99.90;;;;;;5049474;28;20033;-81
2021/01/04 13:29:26;;;;;;;15.00;10.98;;;4.90;99.90;;;;;;5052152;28;20072;-81